sensor_id;sensor_type;location;lat;lon;timestamp;pressure;altitude;pressure_sealevel;temperature;humidity
10732;BME280;5417;42.686;23.244;2023-07-29T00:00:40;94155.28;;;21.67;nan
10732;BME280;5417;42.686;23.244;2023-07-29T00:03:08;94152.22;;;21.64;nan
10732;BME280;5417;42.686;23.244;2023-07-29T00:05:34;94147.13;;;21.62;nan
10732;BME280;5417;42.686;23.244;2023-07-29T00:08:01;94147.34;;;21.67;nan
10732;BME280;5417;42.686;23.244;2023-07-29T00:10:28;94151.22;;;21.65;nan
10732;BME280;5417;42.686;23.244;2023-07-29T00:12:55;94154.66;;;21.59;nan
10732;BME280;5417;42.686;23.244;2023-07-29T00:15:22;94158.91;;;21.53;nan
10732;BME280;5417;42.686;23.244;2023-07-29T00:17:51;94146.66;;;21.46;nan
10732;BME280;5417;42.686;23.244;2023-07-29T00:20:18;94143.81;;;21.47;nan
10732;BME280;5417;42.686;23.244;2023-07-29T00:22:51;94125.44;;;21.39;nan
10732;BME280;5417;42.686;23.244;2023-07-29T00:25:20;94140.31;;;21.40;nan
10732;BME280;5417;42.686;23.244;2023-07-29T00:27:47;94146.81;;;21.37;nan
10732;BME280;5417;42.686;23.244;2023-07-29T00:30:18;94135.63;;;21.35;nan
10732;BME280;5417;42.686;23.244;2023-07-29T00:32:46;94142.09;;;21.33;nan
10732;BME280;5417;42.686;23.244;2023-07-29T00:35:15;94125.38;;;21.26;nan
10732;BME280;5417;42.686;23.244;2023-07-29T00:37:42;94128.75;;;21.20;nan
10732;BME280;5417;42.686;23.244;2023-07-29T00:40:14;94127.56;;;21.22;nan
10732;BME280;5417;42.686;23.244;2023-07-29T00:42:43;94138.34;;;21.21;nan
10732;BME280;5417;42.686;23.244;2023-07-29T00:45:10;94131.00;;;21.16;nan
10732;BME280;5417;42.686;23.244;2023-07-29T00:47:37;94129.75;;;21.12;nan
10732;BME280;5417;42.686;23.244;2023-07-29T00:50:07;94120.97;;;21.05;nan
10732;BME280;5417;42.686;23.244;2023-07-29T00:52:36;94132.16;;;21.07;nan
10732;BME280;5417;42.686;23.244;2023-07-29T00:55:03;94135.19;;;21.04;nan
10732;BME280;5417;42.686;23.244;2023-07-29T00:57:31;94137.03;;;21.03;nan
10732;BME280;5417;42.686;23.244;2023-07-29T00:59:59;94130.50;;;20.99;nan
10732;BME280;5417;42.686;23.244;2023-07-29T01:02:26;94123.53;;;20.92;nan
10732;BME280;5417;42.686;23.244;2023-07-29T01:04:57;94128.44;;;20.95;nan
10732;BME280;5417;42.686;23.244;2023-07-29T01:07:30;94132.28;;;20.92;nan
10732;BME280;5417;42.686;23.244;2023-07-29T01:10:05;94126.56;;;20.89;nan
10732;BME280;5417;42.686;23.244;2023-07-29T01:12:37;94115.94;;;20.82;nan
10732;BME280;5417;42.686;23.244;2023-07-29T01:15:15;94123.50;;;20.85;nan
10732;BME280;5417;42.686;23.244;2023-07-29T01:17:52;94129.19;;;20.82;nan
10732;BME280;5417;42.686;23.244;2023-07-29T01:20:22;94115.03;;;20.68;nan
10732;BME280;5417;42.686;23.244;2023-07-29T01:22:50;94126.03;;;20.72;nan
10732;BME280;5417;42.686;23.244;2023-07-29T01:25:20;94139.50;;;20.77;nan
10732;BME280;5417;42.686;23.244;2023-07-29T01:27:50;94130.72;;;20.76;nan
10732;BME280;5417;42.686;23.244;2023-07-29T01:30:30;94096.84;;;20.59;nan
10732;BME280;5417;42.686;23.244;2023-07-29T01:33:04;94134.19;;;20.77;nan
10732;BME280;5417;42.686;23.244;2023-07-29T01:35:49;94132.84;;;20.81;nan
10732;BME280;5417;42.686;23.244;2023-07-29T01:38:19;94138.75;;;20.83;nan
10732;BME280;5417;42.686;23.244;2023-07-29T01:40:50;94135.28;;;20.83;nan
10732;BME280;5417;42.686;23.244;2023-07-29T01:43:17;94123.22;;;20.80;nan
10732;BME280;5417;42.686;23.244;2023-07-29T01:45:49;94123.38;;;20.72;nan
10732;BME280;5417;42.686;23.244;2023-07-29T01:48:16;94126.66;;;20.74;nan
10732;BME280;5417;42.686;23.244;2023-07-29T01:50:43;94128.88;;;20.70;nan
10732;BME280;5417;42.686;23.244;2023-07-29T01:53:12;94116.19;;;20.59;nan
10732;BME280;5417;42.686;23.244;2023-07-29T01:55:39;94126.38;;;20.62;nan
10732;BME280;5417;42.686;23.244;2023-07-29T01:58:11;94125.13;;;20.58;nan
10732;BME280;5417;42.686;23.244;2023-07-29T02:00:38;94131.00;;;20.54;nan
10732;BME280;5417;42.686;23.244;2023-07-29T02:03:09;94111.00;;;20.44;nan
10732;BME280;5417;42.686;23.244;2023-07-29T02:05:36;94126.47;;;20.47;nan
10732;BME280;5417;42.686;23.244;2023-07-29T02:08:03;94119.34;;;20.48;nan
10732;BME280;5417;42.686;23.244;2023-07-29T02:10:30;94119.16;;;20.50;nan
10732;BME280;5417;42.686;23.244;2023-07-29T02:12:58;94132.81;;;20.53;nan
10732;BME280;5417;42.686;23.244;2023-07-29T02:15:27;94111.56;;;20.40;nan
10732;BME280;5417;42.686;23.244;2023-07-29T02:17:54;94124.69;;;20.55;nan
10732;BME280;5417;42.686;23.244;2023-07-29T02:20:21;94132.88;;;20.60;nan
10732;BME280;5417;42.686;23.244;2023-07-29T02:22:48;94138.97;;;20.60;nan
10732;BME280;5417;42.686;23.244;2023-07-29T02:25:23;94117.47;;;20.42;nan
10732;BME280;5417;42.686;23.244;2023-07-29T02:27:53;94117.22;;;20.37;nan
10732;BME280;5417;42.686;23.244;2023-07-29T02:30:20;94127.59;;;20.38;nan
10732;BME280;5417;42.686;23.244;2023-07-29T02:32:51;94124.91;;;20.32;nan
10732;BME280;5417;42.686;23.244;2023-07-29T02:35:20;94128.28;;;20.26;nan
10732;BME280;5417;42.686;23.244;2023-07-29T02:37:47;94134.19;;;20.28;nan
10732;BME280;5417;42.686;23.244;2023-07-29T02:40:14;94124.19;;;20.23;nan
10732;BME280;5417;42.686;23.244;2023-07-29T02:42:43;94126.19;;;20.21;nan
10732;BME280;5417;42.686;23.244;2023-07-29T02:45:10;94124.56;;;20.20;nan
10732;BME280;5417;42.686;23.244;2023-07-29T02:47:37;94138.78;;;20.19;nan
10732;BME280;5417;42.686;23.244;2023-07-29T02:50:10;94145.47;;;20.15;nan
10732;BME280;5417;42.686;23.244;2023-07-29T02:52:46;94142.00;;;20.14;nan
10732;BME280;5417;42.686;23.244;2023-07-29T02:55:15;94143.38;;;20.10;nan
10732;BME280;5417;42.686;23.244;2023-07-29T02:57:44;94123.00;;;20.04;nan
10732;BME280;5417;42.686;23.244;2023-07-29T03:00:16;94141.56;;;20.11;nan
10732;BME280;5417;42.686;23.244;2023-07-29T03:02:43;94139.09;;;20.09;nan
10732;BME280;5417;42.686;23.244;2023-07-29T03:05:11;94146.84;;;20.11;nan
10732;BME280;5417;42.686;23.244;2023-07-29T03:07:40;94156.41;;;20.12;nan
10732;BME280;5417;42.686;23.244;2023-07-29T03:10:07;94156.59;;;20.10;nan
10732;BME280;5417;42.686;23.244;2023-07-29T03:12:36;94153.31;;;20.08;nan
10732;BME280;5417;42.686;23.244;2023-07-29T03:15:04;94150.88;;;20.07;nan
10732;BME280;5417;42.686;23.244;2023-07-29T03:17:31;94146.78;;;20.04;nan
10732;BME280;5417;42.686;23.244;2023-07-29T03:19:58;94142.00;;;19.93;nan
10732;BME280;5417;42.686;23.244;2023-07-29T03:22:28;94161.75;;;19.97;nan
10732;BME280;5417;42.686;23.244;2023-07-29T03:24:55;94153.66;;;19.99;nan
10732;BME280;5417;42.686;23.244;2023-07-29T03:27:25;94154.09;;;20.02;nan
10732;BME280;5417;42.686;23.244;2023-07-29T03:29:51;94156.97;;;20.07;nan
10732;BME280;5417;42.686;23.244;2023-07-29T03:32:18;94152.63;;;20.00;nan
10732;BME280;5417;42.686;23.244;2023-07-29T03:34:45;94160.31;;;19.95;nan
10732;BME280;5417;42.686;23.244;2023-07-29T03:37:16;94156.34;;;19.84;nan
10732;BME280;5417;42.686;23.244;2023-07-29T03:39:50;94155.97;;;19.87;nan
10732;BME280;5417;42.686;23.244;2023-07-29T03:42:17;94152.69;;;19.85;nan
10732;BME280;5417;42.686;23.244;2023-07-29T03:44:48;94149.41;;;19.83;nan
10732;BME280;5417;42.686;23.244;2023-07-29T03:47:15;94141.78;;;19.73;nan
10732;BME280;5417;42.686;23.244;2023-07-29T03:49:42;94148.78;;;19.81;nan
10732;BME280;5417;42.686;23.244;2023-07-29T03:52:09;94156.78;;;19.88;nan
10732;BME280;5417;42.686;23.244;2023-07-29T03:54:36;94159.88;;;19.91;nan
10732;BME280;5417;42.686;23.244;2023-07-29T03:57:07;94147.09;;;19.95;nan
10732;BME280;5417;42.686;23.244;2023-07-29T03:59:33;94148.53;;;19.97;nan
10732;BME280;5417;42.686;23.244;2023-07-29T04:02:01;94151.00;;;19.99;nan
10732;BME280;5417;42.686;23.244;2023-07-29T04:04:31;94146.09;;;19.96;nan
10732;BME280;5417;42.686;23.244;2023-07-29T04:06:57;94153.06;;;20.03;nan
10732;BME280;5417;42.686;23.244;2023-07-29T04:09:26;94166.41;;;20.16;nan
10732;BME280;5417;42.686;23.244;2023-07-29T04:11:55;94156.97;;;20.29;nan
10732;BME280;5417;42.686;23.244;2023-07-29T04:14:26;94160.19;;;20.24;nan
10732;BME280;5417;42.686;23.244;2023-07-29T04:16:56;94157.91;;;20.21;nan
10732;BME280;5417;42.686;23.244;2023-07-29T04:19:23;94163.44;;;20.26;nan
10732;BME280;5417;42.686;23.244;2023-07-29T04:21:49;94154.06;;;20.24;nan
10732;BME280;5417;42.686;23.244;2023-07-29T04:24:19;94166.69;;;20.43;nan
10732;BME280;5417;42.686;23.244;2023-07-29T04:26:48;94170.06;;;20.58;nan
10732;BME280;5417;42.686;23.244;2023-07-29T04:29:15;94149.84;;;20.44;nan
10732;BME280;5417;42.686;23.244;2023-07-29T04:31:46;94151.38;;;20.60;nan
10732;BME280;5417;42.686;23.244;2023-07-29T04:34:13;94155.38;;;20.49;nan
10732;BME280;5417;42.686;23.244;2023-07-29T04:36:42;94173.97;;;20.62;nan
10732;BME280;5417;42.686;23.244;2023-07-29T04:39:09;94176.47;;;20.70;nan
10732;BME280;5417;42.686;23.244;2023-07-29T04:41:37;94174.97;;;20.83;nan
10732;BME280;5417;42.686;23.244;2023-07-29T04:44:04;94162.63;;;20.68;nan
10732;BME280;5417;42.686;23.244;2023-07-29T04:46:31;94181.56;;;20.72;nan
10732;BME280;5417;42.686;23.244;2023-07-29T04:49:01;94160.22;;;20.73;nan
10732;BME280;5417;42.686;23.244;2023-07-29T04:51:28;94175.78;;;21.18;nan
10732;BME280;5417;42.686;23.244;2023-07-29T04:53:57;94151.94;;;22.00;nan
10732;BME280;5417;42.686;23.244;2023-07-29T04:56:24;94179.56;;;23.44;nan
10732;BME280;5417;42.686;23.244;2023-07-29T04:58:50;94174.63;;;24.75;nan
10732;BME280;5417;42.686;23.244;2023-07-29T05:01:17;94171.97;;;25.98;nan
10732;BME280;5417;42.686;23.244;2023-07-29T05:03:44;94172.13;;;27.17;nan
10732;BME280;5417;42.686;23.244;2023-07-29T05:06:14;94172.72;;;28.06;nan
10732;BME280;5417;42.686;23.244;2023-07-29T05:08:43;94164.97;;;28.33;nan
10732;BME280;5417;42.686;23.244;2023-07-29T05:11:10;94171.47;;;28.65;nan
10732;BME280;5417;42.686;23.244;2023-07-29T05:13:37;94178.38;;;28.78;nan
10732;BME280;5417;42.686;23.244;2023-07-29T05:16:08;94176.22;;;28.92;nan
10732;BME280;5417;42.686;23.244;2023-07-29T05:18:37;94171.97;;;28.79;nan
10732;BME280;5417;42.686;23.244;2023-07-29T05:21:04;94184.34;;;29.30;nan
10732;BME280;5417;42.686;23.244;2023-07-29T05:23:32;94186.84;;;29.37;nan
10732;BME280;5417;42.686;23.244;2023-07-29T05:25:59;94180.28;;;29.44;nan
10732;BME280;5417;42.686;23.244;2023-07-29T05:28:26;94174.91;;;29.44;nan
10732;BME280;5417;42.686;23.244;2023-07-29T05:30:53;94171.81;;;29.52;nan
10732;BME280;5417;42.686;23.244;2023-07-29T05:33:20;94170.44;;;29.33;nan
10732;BME280;5417;42.686;23.244;2023-07-29T05:35:47;94179.81;;;29.14;nan
10732;BME280;5417;42.686;23.244;2023-07-29T05:38:16;94177.44;;;28.55;nan
10732;BME280;5417;42.686;23.244;2023-07-29T05:40:44;94188.44;;;28.14;nan
10732;BME280;5417;42.686;23.244;2023-07-29T05:43:13;94187.13;;;27.76;nan
10732;BME280;5417;42.686;23.244;2023-07-29T05:45:40;94190.97;;;27.69;nan
10732;BME280;5417;42.686;23.244;2023-07-29T05:48:09;94186.56;;;27.62;nan
10732;BME280;5417;42.686;23.244;2023-07-29T05:50:39;94194.56;;;27.39;nan
10732;BME280;5417;42.686;23.244;2023-07-29T05:53:25;94197.34;;;27.21;nan
10732;BME280;5417;42.686;23.244;2023-07-29T05:55:53;94192.00;;;27.09;nan
10732;BME280;5417;42.686;23.244;2023-07-29T05:58:22;94185.84;;;27.20;nan
10732;BME280;5417;42.686;23.244;2023-07-29T06:00:49;94176.53;;;27.46;nan
10732;BME280;5417;42.686;23.244;2023-07-29T06:03:16;94183.97;;;27.79;nan
10732;BME280;5417;42.686;23.244;2023-07-29T06:05:43;94183.19;;;28.07;nan
10732;BME280;5417;42.686;23.244;2023-07-29T06:08:09;94197.28;;;28.14;nan
10732;BME280;5417;42.686;23.244;2023-07-29T06:10:40;94186.91;;;28.18;nan
10732;BME280;5417;42.686;23.244;2023-07-29T06:13:10;94193.75;;;28.25;nan
10732;BME280;5417;42.686;23.244;2023-07-29T06:15:36;94185.00;;;28.30;nan
10732;BME280;5417;42.686;23.244;2023-07-29T06:18:04;94181.81;;;28.45;nan
10732;BME280;5417;42.686;23.244;2023-07-29T06:20:36;94181.78;;;28.73;nan
10732;BME280;5417;42.686;23.244;2023-07-29T06:23:06;94177.59;;;28.94;nan
10732;BME280;5417;42.686;23.244;2023-07-29T06:25:54;94169.66;;;29.16;nan
10732;BME280;5417;42.686;23.244;2023-07-29T06:28:33;94182.38;;;29.42;nan
10732;BME280;5417;42.686;23.244;2023-07-29T06:30:59;94177.88;;;29.65;nan
10732;BME280;5417;42.686;23.244;2023-07-29T06:33:32;94169.56;;;29.44;nan
10732;BME280;5417;42.686;23.244;2023-07-29T06:35:59;94167.94;;;29.27;nan
10732;BME280;5417;42.686;23.244;2023-07-29T06:38:26;94172.25;;;29.28;nan
10732;BME280;5417;42.686;23.244;2023-07-29T06:40:53;94167.06;;;29.21;nan
10732;BME280;5417;42.686;23.244;2023-07-29T06:43:28;94156.72;;;29.30;nan
10732;BME280;5417;42.686;23.244;2023-07-29T06:45:57;94164.41;;;29.43;nan
10732;BME280;5417;42.686;23.244;2023-07-29T06:48:28;94157.03;;;29.50;nan
10732;BME280;5417;42.686;23.244;2023-07-29T06:54:34;94168.81;;;29.49;nan
10732;BME280;5417;42.686;23.244;2023-07-29T06:57:13;94164.75;;;29.30;nan
10732;BME280;5417;42.686;23.244;2023-07-29T06:59:54;94165.81;;;29.29;nan
10732;BME280;5417;42.686;23.244;2023-07-29T07:40:06;94150.78;;;29.44;nan
10732;BME280;5417;42.686;23.244;2023-07-29T07:42:34;94155.56;;;29.42;nan
10732;BME280;5417;42.686;23.244;2023-07-29T07:45:01;94155.34;;;29.44;nan
10732;BME280;5417;42.686;23.244;2023-07-29T07:47:28;94144.25;;;29.57;nan
10732;BME280;5417;42.686;23.244;2023-07-29T07:49:55;94154.53;;;29.43;nan
10732;BME280;5417;42.686;23.244;2023-07-29T07:52:22;94150.78;;;29.28;nan
10732;BME280;5417;42.686;23.244;2023-07-29T07:54:51;94160.31;;;28.85;nan
10732;BME280;5417;42.686;23.244;2023-07-29T07:57:20;94157.13;;;29.05;nan
10732;BME280;5417;42.686;23.244;2023-07-29T07:59:47;94152.66;;;29.27;nan
10732;BME280;5417;42.686;23.244;2023-07-29T08:02:14;94157.84;;;29.50;nan
10732;BME280;5417;42.686;23.244;2023-07-29T08:04:41;94159.91;;;29.65;nan
10732;BME280;5417;42.686;23.244;2023-07-29T08:07:10;94159.06;;;29.81;nan
10732;BME280;5417;42.686;23.244;2023-07-29T08:09:39;94144.22;;;29.74;nan
10732;BME280;5417;42.686;23.244;2023-07-29T08:12:06;94160.50;;;29.89;nan
10732;BME280;5417;42.686;23.244;2023-07-29T08:14:34;94153.84;;;29.53;nan
10732;BME280;5417;42.686;23.244;2023-07-29T08:17:01;94154.09;;;29.35;nan
10732;BME280;5417;42.686;23.244;2023-07-29T08:19:28;94157.22;;;29.27;nan
10732;BME280;5417;42.686;23.244;2023-07-29T08:21:55;94165.50;;;29.25;nan
10732;BME280;5417;42.686;23.244;2023-07-29T08:24:22;94160.81;;;29.15;nan
10732;BME280;5417;42.686;23.244;2023-07-29T08:26:49;94159.81;;;29.05;nan
10732;BME280;5417;42.686;23.244;2023-07-29T08:29:16;94147.56;;;28.92;nan
10732;BME280;5417;42.686;23.244;2023-07-29T08:31:44;94155.25;;;29.39;nan
10732;BME280;5417;42.686;23.244;2023-07-29T08:34:11;94164.16;;;29.61;nan
10732;BME280;5417;42.686;23.244;2023-07-29T08:36:38;94157.47;;;30.02;nan
10732;BME280;5417;42.686;23.244;2023-07-29T08:39:05;94158.34;;;30.08;nan
10732;BME280;5417;42.686;23.244;2023-07-29T08:41:37;94159.09;;;30.25;nan
10732;BME280;5417;42.686;23.244;2023-07-29T08:44:09;94143.09;;;30.13;nan
10732;BME280;5417;42.686;23.244;2023-07-29T08:46:39;94150.03;;;30.31;nan
10732;BME280;5417;42.686;23.244;2023-07-29T08:49:07;94140.31;;;30.57;nan
10732;BME280;5417;42.686;23.244;2023-07-29T08:51:35;94139.34;;;30.63;nan
10732;BME280;5417;42.686;23.244;2023-07-29T08:54:03;94141.16;;;30.31;nan
10732;BME280;5417;42.686;23.244;2023-07-29T08:56:30;94140.72;;;30.17;nan
10732;BME280;5417;42.686;23.244;2023-07-29T08:58:58;94142.84;;;30.15;nan
10732;BME280;5417;42.686;23.244;2023-07-29T09:01:27;94137.91;;;30.29;nan
10732;BME280;5417;42.686;23.244;2023-07-29T09:03:56;94143.53;;;30.54;nan
10732;BME280;5417;42.686;23.244;2023-07-29T09:06:25;94128.28;;;30.87;nan
10732;BME280;5417;42.686;23.244;2023-07-29T09:08:53;94108.78;;;31.06;nan
10732;BME280;5417;42.686;23.244;2023-07-29T09:11:22;94129.72;;;31.36;nan
10732;BME280;5417;42.686;23.244;2023-07-29T09:13:49;94123.03;;;31.44;nan
10732;BME280;5417;42.686;23.244;2023-07-29T09:16:16;94113.44;;;31.58;nan
10732;BME280;5417;42.686;23.244;2023-07-29T09:18:42;94111.69;;;31.79;nan
10732;BME280;5417;42.686;23.244;2023-07-29T09:21:09;94106.31;;;31.84;nan
10732;BME280;5417;42.686;23.244;2023-07-29T09:23:42;94107.75;;;31.55;nan
10732;BME280;5417;42.686;23.244;2023-07-29T09:26:09;94114.25;;;31.64;nan
10732;BME280;5417;42.686;23.244;2023-07-29T09:28:38;94111.75;;;31.42;nan
10732;BME280;5417;42.686;23.244;2023-07-29T09:31:05;94102.53;;;30.96;nan
10732;BME280;5417;42.686;23.244;2023-07-29T09:33:33;94106.34;;;31.05;nan
10732;BME280;5417;42.686;23.244;2023-07-29T09:36:02;94096.31;;;30.90;nan
10732;BME280;5417;42.686;23.244;2023-07-29T09:38:29;94103.50;;;30.80;nan
10732;BME280;5417;42.686;23.244;2023-07-29T09:40:58;94095.25;;;30.59;nan
10732;BME280;5417;42.686;23.244;2023-07-29T09:43:25;94093.81;;;30.52;nan
10732;BME280;5417;42.686;23.244;2023-07-29T09:45:53;94090.16;;;30.63;nan
10732;BME280;5417;42.686;23.244;2023-07-29T09:48:22;94093.22;;;30.71;nan
10732;BME280;5417;42.686;23.244;2023-07-29T09:50:54;94101.91;;;30.84;nan
10732;BME280;5417;42.686;23.244;2023-07-29T09:53:21;94094.25;;;31.02;nan
10732;BME280;5417;42.686;23.244;2023-07-29T09:55:48;94092.75;;;31.17;nan
10732;BME280;5417;42.686;23.244;2023-07-29T09:58:19;94078.03;;;31.24;nan
10732;BME280;5417;42.686;23.244;2023-07-29T10:00:52;94095.53;;;31.27;nan
10732;BME280;5417;42.686;23.244;2023-07-29T10:03:20;94087.94;;;30.87;nan
10732;BME280;5417;42.686;23.244;2023-07-29T10:05:48;94086.09;;;30.92;nan
10732;BME280;5417;42.686;23.244;2023-07-29T10:08:16;94077.69;;;30.79;nan
10732;BME280;5417;42.686;23.244;2023-07-29T10:10:43;94079.38;;;30.90;nan
10732;BME280;5417;42.686;23.244;2023-07-29T10:13:11;94074.03;;;30.95;nan
10732;BME280;5417;42.686;23.244;2023-07-29T10:15:40;94076.25;;;31.08;nan
10732;BME280;5417;42.686;23.244;2023-07-29T10:18:08;94046.91;;;31.01;nan
10732;BME280;5417;42.686;23.244;2023-07-29T10:20:35;94071.69;;;31.08;nan
10732;BME280;5417;42.686;23.244;2023-07-29T10:23:04;94055.66;;;30.82;nan
10732;BME280;5417;42.686;23.244;2023-07-29T10:25:38;94057.88;;;30.90;nan
10732;BME280;5417;42.686;23.244;2023-07-29T10:28:06;94054.69;;;30.98;nan
10732;BME280;5417;42.686;23.244;2023-07-29T10:30:35;94052.22;;;30.91;nan
10732;BME280;5417;42.686;23.244;2023-07-29T10:33:05;94052.13;;;30.76;nan
10732;BME280;5417;42.686;23.244;2023-07-29T10:35:32;94036.78;;;30.71;nan
10732;BME280;5417;42.686;23.244;2023-07-29T10:38:00;94038.19;;;30.79;nan
10732;BME280;5417;42.686;23.244;2023-07-29T10:40:43;94026.88;;;30.77;nan
10732;BME280;5417;42.686;23.244;2023-07-29T10:43:11;94040.38;;;30.87;nan
10732;BME280;5417;42.686;23.244;2023-07-29T10:45:41;94042.56;;;30.90;nan
10732;BME280;5417;42.686;23.244;2023-07-29T10:48:12;94040.63;;;30.86;nan
10732;BME280;5417;42.686;23.244;2023-07-29T10:50:39;94024.78;;;30.84;nan
10732;BME280;5417;42.686;23.244;2023-07-29T10:53:06;94018.97;;;30.65;nan
10732;BME280;5417;42.686;23.244;2023-07-29T10:55:34;94025.31;;;30.54;nan
10732;BME280;5417;42.686;23.244;2023-07-29T10:58:11;94030.03;;;30.69;nan
10732;BME280;5417;42.686;23.244;2023-07-29T11:00:38;94016.03;;;30.67;nan
10732;BME280;5417;42.686;23.244;2023-07-29T11:03:08;94019.53;;;30.67;nan
10732;BME280;5417;42.686;23.244;2023-07-29T11:05:47;94004.28;;;30.41;nan
10732;BME280;5417;42.686;23.244;2023-07-29T11:08:22;94015.06;;;30.46;nan
10732;BME280;5417;42.686;23.244;2023-07-29T11:11:01;94001.06;;;30.44;nan
10732;BME280;5417;42.686;23.244;2023-07-29T11:13:29;94021.13;;;30.63;nan
10732;BME280;5417;42.686;23.244;2023-07-29T11:15:56;94015.09;;;30.83;nan
10732;BME280;5417;42.686;23.244;2023-07-29T11:18:26;93995.78;;;30.91;nan
10732;BME280;5417;42.686;23.244;2023-07-29T11:20:55;94005.81;;;31.11;nan
10732;BME280;5417;42.686;23.244;2023-07-29T11:23:28;94014.41;;;31.08;nan
10732;BME280;5417;42.686;23.244;2023-07-29T11:25:56;94009.81;;;30.98;nan
10732;BME280;5417;42.686;23.244;2023-07-29T11:28:23;94006.25;;;30.88;nan
10732;BME280;5417;42.686;23.244;2023-07-29T11:30:51;94004.56;;;30.76;nan
10732;BME280;5417;42.686;23.244;2023-07-29T11:33:20;93999.09;;;30.66;nan
10732;BME280;5417;42.686;23.244;2023-07-29T11:35:47;94007.69;;;30.63;nan
10732;BME280;5417;42.686;23.244;2023-07-29T11:38:19;93988.69;;;30.70;nan
10732;BME280;5417;42.686;23.244;2023-07-29T11:41:00;93995.44;;;30.77;nan
10732;BME280;5417;42.686;23.244;2023-07-29T11:43:29;93996.31;;;30.88;nan
10732;BME280;5417;42.686;23.244;2023-07-29T11:45:56;93992.56;;;30.94;nan
10732;BME280;5417;42.686;23.244;2023-07-29T11:48:28;93992.00;;;30.87;nan
10732;BME280;5417;42.686;23.244;2023-07-29T11:50:55;93989.41;;;30.65;nan
10732;BME280;5417;42.686;23.244;2023-07-29T11:53:28;93983.44;;;30.58;nan
10732;BME280;5417;42.686;23.244;2023-07-29T11:55:58;93977.06;;;30.64;nan
10732;BME280;5417;42.686;23.244;2023-07-29T11:58:26;93986.63;;;30.55;nan
10732;BME280;5417;42.686;23.244;2023-07-29T12:00:56;93990.91;;;30.51;nan
10732;BME280;5417;42.686;23.244;2023-07-29T12:03:23;93986.03;;;30.43;nan
10732;BME280;5417;42.686;23.244;2023-07-29T12:05:53;93979.03;;;30.42;nan
10732;BME280;5417;42.686;23.244;2023-07-29T12:08:20;93961.19;;;30.26;nan
10732;BME280;5417;42.686;23.244;2023-07-29T12:10:50;93970.75;;;30.49;nan
10732;BME280;5417;42.686;23.244;2023-07-29T12:13:17;93976.00;;;30.65;nan
10732;BME280;5417;42.686;23.244;2023-07-29T12:15:47;93973.72;;;30.84;nan
10732;BME280;5417;42.686;23.244;2023-07-29T12:18:14;93957.84;;;30.83;nan
10732;BME280;5417;42.686;23.244;2023-07-29T12:20:41;93965.19;;;31.02;nan
10732;BME280;5417;42.686;23.244;2023-07-29T12:23:11;93967.63;;;31.04;nan
10732;BME280;5417;42.686;23.244;2023-07-29T12:25:38;93967.44;;;31.16;nan
10732;BME280;5417;42.686;23.244;2023-07-29T12:28:08;93964.00;;;31.30;nan
10732;BME280;5417;42.686;23.244;2023-07-29T12:30:43;93947.59;;;31.22;nan
10732;BME280;5417;42.686;23.244;2023-07-29T12:33:10;93959.19;;;31.32;nan
10732;BME280;5417;42.686;23.244;2023-07-29T12:35:37;93961.59;;;31.34;nan
10732;BME280;5417;42.686;23.244;2023-07-29T12:38:07;93947.88;;;31.25;nan
10732;BME280;5417;42.686;23.244;2023-07-29T12:40:40;93958.78;;;31.14;nan
10732;BME280;5417;42.686;23.244;2023-07-29T12:43:10;93962.88;;;31.21;nan
10732;BME280;5417;42.686;23.244;2023-07-29T12:45:37;93950.94;;;31.02;nan
10732;BME280;5417;42.686;23.244;2023-07-29T12:48:05;93939.81;;;30.78;nan
10732;BME280;5417;42.686;23.244;2023-07-29T12:50:32;93956.72;;;30.73;nan
10732;BME280;5417;42.686;23.244;2023-07-29T12:53:01;93952.25;;;30.57;nan
10732;BME280;5417;42.686;23.244;2023-07-29T12:55:28;93946.81;;;30.42;nan
10732;BME280;5417;42.686;23.244;2023-07-29T12:57:55;93941.09;;;30.33;nan
10732;BME280;5417;42.686;23.244;2023-07-29T13:00:25;93944.31;;;30.30;nan
10732;BME280;5417;42.686;23.244;2023-07-29T13:02:52;93956.78;;;30.46;nan
10732;BME280;5417;42.686;23.244;2023-07-29T13:05:19;93944.66;;;30.44;nan
10732;BME280;5417;42.686;23.244;2023-07-29T13:07:46;93946.06;;;30.52;nan
10732;BME280;5417;42.686;23.244;2023-07-29T13:10:13;93943.19;;;30.63;nan
10732;BME280;5417;42.686;23.244;2023-07-29T13:12:40;93944.84;;;30.69;nan
10732;BME280;5417;42.686;23.244;2023-07-29T13:15:10;93952.69;;;30.71;nan
10732;BME280;5417;42.686;23.244;2023-07-29T13:17:38;93943.22;;;30.68;nan
10732;BME280;5417;42.686;23.244;2023-07-29T13:20:07;93938.53;;;30.54;nan
10732;BME280;5417;42.686;23.244;2023-07-29T13:22:34;93941.22;;;30.54;nan
10732;BME280;5417;42.686;23.244;2023-07-29T13:25:05;93936.13;;;30.52;nan
10732;BME280;5417;42.686;23.244;2023-07-29T13:27:32;93935.31;;;30.52;nan
10732;BME280;5417;42.686;23.244;2023-07-29T13:29:59;93937.03;;;30.63;nan
10732;BME280;5417;42.686;23.244;2023-07-29T13:32:26;93931.91;;;30.61;nan
10732;BME280;5417;42.686;23.244;2023-07-29T13:34:54;93937.44;;;30.50;nan
10732;BME280;5417;42.686;23.244;2023-07-29T13:37:24;93939.09;;;30.56;nan
10732;BME280;5417;42.686;23.244;2023-07-29T13:39:51;93944.78;;;30.59;nan
10732;BME280;5417;42.686;23.244;2023-07-29T13:42:22;93934.06;;;30.64;nan
10732;BME280;5417;42.686;23.244;2023-07-29T13:44:49;93927.09;;;30.63;nan
10732;BME280;5417;42.686;23.244;2023-07-29T13:47:37;93907.19;;;30.64;nan
10732;BME280;5417;42.686;23.244;2023-07-29T13:50:12;93920.94;;;30.68;nan
10732;BME280;5417;42.686;23.244;2023-07-29T13:52:40;93906.28;;;30.49;nan
10732;BME280;5417;42.686;23.244;2023-07-29T13:55:07;93922.16;;;30.55;nan
10732;BME280;5417;42.686;23.244;2023-07-29T13:57:37;93902.63;;;30.60;nan
10732;BME280;5417;42.686;23.244;2023-07-29T14:00:05;93907.19;;;30.64;nan
10732;BME280;5417;42.686;23.244;2023-07-29T14:02:35;93908.88;;;30.70;nan
10732;BME280;5417;42.686;23.244;2023-07-29T14:05:02;93911.31;;;30.77;nan
10732;BME280;5417;42.686;23.244;2023-07-29T14:07:31;93901.94;;;30.85;nan
10732;BME280;5417;42.686;23.244;2023-07-29T14:10:03;93905.44;;;30.85;nan
10732;BME280;5417;42.686;23.244;2023-07-29T14:12:30;93903.31;;;30.87;nan